Sheridan, CA (95486)

11:07 AM PDT on August 28, 2015 (GMT -0700)
Starrett Hill 3rd Level | | Change Station
CLOSE
Current Station
Personal Weather Station
Location: Monte Rio, CA
Elevation: 348 ft
Nearby Weather Stations

Elev 348 ft 38.47 °N, 123.01 °W | Updated 7 minutes ago

Mostly Cloudy
Mostly Cloudy
83.1 °F
Feels Like 83 °F
N
1.6
Wind Variable Wind from NNE

Today
High -- | Low -- °F
--% Chance of Precip.
Yesterday
High -- | Low -- °F
Precip. -- in
6:37 AM 7:48 PM
Waxing Gibbous, 98% visible
Pressure 29.88 in
Visibility 10.0 miles
Clouds Mostly Cloudy 25000 ft
Heat Index 83 °F
Dew Point 59 °F
Humidity 44%
Rainfall 0.00 in
Snow Depth Not available.
UV 4 out of 12
Pollen 6.70 out of 12
Air Quality Not available.
Flu Activity Not available.
METAR KSTS 281753Z 00000KT 10SM BKN250 26/12 A2990 RMK AO2 SLP117 T02610117 10272 20150 58003
Pressure 29.88 in
Visibility 10.0 miles
Clouds Mostly Cloudy 25000 ft
Heat Index 83 °F
Dew Point 59 °F
Humidity 44%
Rainfall 0.00 in
Snow Depth Not available.
UV 4 out of 12
Pollen 6.70 out of 12
Air Quality Not available.
Flu Activity Not available.
METAR KSTS 281753Z 00000KT 10SM BKN250 26/12 A2990 RMK AO2 SLP117 T02610117 10272 20150 58003

10-Day Weather Forecast

×

Almanac

Astronomy

Aug. 28, 2015 Rise Set
Actual Time
Civil Twilight
Nautical Twilight
Astronomical Twilight
Moon
Length of Visible Light
Length of Day
Tomorrow will be .
, % of the Moon is Illuminated

Today's Extremes

State Highs State Lows

Community

WunderPhotos

Upload Photos

1,850,447 photos uploaded!

WunderBlogs® & News

Nearby

Air Quality

  Air Quality AQ Index Pollutant
Not available.

Snow Depth

Station Depth Elevation

Earthquake Activity

City Distance Mag. Time & Date
Minimum magnitude displayed is 2.5.

Coastal Water Temperatures

Place Temperature

Stations

Nearby Weather Stations

Station Location Temp. Windchill Dew Point Humidity Wind Precip. Elev Updated Type